Time;durP1;ratioP1;P1;durP2;ratioP2;P2;SDS_P1;SDS_P2;PMS_P1;PMS_P2;Temp;Humidity;BMP_temperature;BMP_pressure;BME280_temperature;BME280_humidity;BME280_pressure;Samples;Min_cycle;Max_cycle;Signal;HPM_P1;HPM_P2
2022/03/07 00:01:26;;;;;;;44.20;32.10;;;;;;;-1.68;82.70;99470.69;105218;1270;61351;-75
2022/03/07 00:03:54;;;;;;;49.60;33.00;;;;;;;-1.67;82.89;99471.37;105432;1270;61337;-75
2022/03/07 00:06:21;;;;;;;47.00;32.10;;;;;;;-1.67;82.67;99468.77;105469;1271;76359;-75
2022/03/07 00:08:48;;;;;;;47.20;31.80;;;;;;;-1.65;82.76;99469.96;105301;1270;69317;-75
2022/03/07 00:11:16;;;;;;;45.20;30.70;;;;;;;-1.66;82.62;99466.31;105260;1270;73087;-75
2022/03/07 00:13:43;;;;;;;44.70;31.40;;;;;;;-1.65;82.62;99470.65;105274;1270;61332;-74
2022/03/07 00:16:10;;;;;;;43.10;29.60;;;;;;;-1.66;82.45;99472.22;105373;1270;61432;-75
2022/03/07 00:18:38;;;;;;;42.30;28.00;;;;;;;-1.68;82.77;99470.16;105297;1270;75315;-75
2022/03/07 00:21:08;;;;;;;42.80;29.80;;;;;;;-1.71;82.76;99464.79;105279;1270;69200;-75
2022/03/07 00:23:35;;;;;;;48.80;31.10;;;;;;;-1.71;82.81;99469.14;105314;1270;73504;-75
2022/03/07 00:26:02;;;;;;;40.40;29.20;;;;;;;-1.72;83.14;99473.51;105428;1270;61417;-74
2022/03/07 00:28:29;;;;;;;45.30;30.70;;;;;;;-1.72;82.94;99473.34;105314;1270;61207;-74
2022/03/07 00:30:56;;;;;;;48.80;34.10;;;;;;;-1.73;82.99;99471.60;105299;1271;73476;-74
2022/03/07 00:33:22;;;;;;;46.30;33.30;;;;;;;-1.71;83.13;99471.05;105247;1270;70706;-74
2022/03/07 00:35:49;;;;;;;49.30;33.10;;;;;;;-1.71;83.24;99474.71;105245;1270;72837;-76
2022/03/07 00:38:16;;;;;;;47.20;32.30;;;;;;;-1.71;83.22;99476.27;104526;1271;1002774;-74
2022/03/07 00:40:42;;;;;;;44.90;32.30;;;;;;;-1.70;83.07;99475.76;105225;1270;61362;-74
2022/03/07 00:43:09;;;;;;;51.20;34.90;;;;;;;-1.68;83.18;99472.95;104948;1272;61318;-74
2022/03/07 00:45:37;;;;;;;53.70;35.00;;;;;;;-1.68;83.54;99472.95;105266;1270;68148;-74
2022/03/07 00:48:04;;;;;;;56.70;34.50;;;;;;;-1.69;83.69;99472.43;105223;1270;74202;-74
2022/03/07 00:50:31;;;;;;;56.10;36.20;;;;;;;-1.69;83.84;99472.95;105267;1270;61304;-74
2022/03/07 00:52:58;;;;;;;52.80;35.70;;;;;;;-1.70;84.04;99468.09;104977;1271;295043;-75
2022/03/07 00:55:25;;;;;;;49.80;35.50;;;;;;;-1.71;83.71;99463.41;105243;1270;75619;-75
2022/03/07 00:57:51;;;;;;;47.90;33.60;;;;;;;-1.71;83.42;99465.31;105269;1270;70398;-75
2022/03/07 01:00:18;;;;;;;43.70;31.20;;;;;;;-1.72;82.79;99461.66;105041;1271;71873;-77
2022/03/07 01:02:44;;;;;;;43.80;29.80;;;;;;;-1.74;82.11;99462.02;105221;1270;61148;-75
2022/03/07 01:05:12;;;;;;;47.20;30.20;;;;;;;-1.75;81.47;99461.34;105270;1270;61126;-76
2022/03/07 01:07:39;;;;;;;41.60;30.40;;;;;;;-1.75;81.34;99459.77;105246;1270;75255;-76
2022/03/07 01:10:06;;;;;;;43.20;30.40;;;;;;;-1.75;80.64;99458.90;105317;1270;70363;-77
2022/03/07 01:12:32;;;;;;;43.50;31.90;;;;;;;-1.76;80.43;99457.52;105236;1271;74226;-75
2022/03/07 01:14:59;;;;;;;40.50;27.60;;;;;;;-1.77;79.94;99454.04;105244;1269;61225;-75
2022/03/07 01:17:26;;;;;;;32.50;24.70;;;;;;;-1.77;79.27;99455.43;105284;1270;61398;-75
2022/03/07 01:19:52;;;;;;;38.20;27.10;;;;;;;-1.79;78.46;99454.59;105385;1270;75256;-75
2022/03/07 01:22:19;;;;;;;37.10;26.30;;;;;;;-1.81;78.14;99449.71;105481;1270;61288;-75
2022/03/07 01:24:45;;;;;;;39.50;28.70;;;;;;;-1.82;78.55;99445.04;106932;1269;60069;-75
2022/03/07 01:27:11;;;;;;;35.20;26.90;;;;;;;-1.83;77.92;99444.69;106860;1270;59913;-75
2022/03/07 01:29:38;;;;;;;34.90;26.40;;;;;;;-1.82;77.69;99446.78;106004;1270;61282;-75
2022/03/07 01:32:05;;;;;;;34.50;27.30;;;;;;;-1.83;77.19;99448.02;105273;1270;61363;-74
2022/03/07 01:34:31;;;;;;;35.90;25.80;;;;;;;-1.83;77.10;99450.98;103807;1270;1003143;-74
2022/03/07 01:36:58;;;;;;;35.80;27.80;;;;;;;-1.85;76.95;99445.58;105320;1269;61376;-75
2022/03/07 01:39:25;;;;;;;37.60;28.30;;;;;;;-1.85;76.82;99441.58;105285;1270;61450;-75
2022/03/07 01:41:51;;;;;;;37.30;28.20;;;;;;;-1.85;76.83;99444.54;105251;1270;61354;-75
2022/03/07 01:44:21;;;;;;;35.30;27.60;;;;;;;-1.85;76.90;99446.63;105172;1270;75976;-74
2022/03/07 01:46:48;;;;;;;36.30;27.60;;;;;;;-1.87;76.87;99444.56;105255;1270;70202;-75
2022/03/07 01:49:14;;;;;;;36.90;28.10;;;;;;;-1.87;76.61;99443.87;105268;1269;71369;-75
2022/03/07 01:51:42;;;;;;;38.40;25.90;;;;;;;-1.88;76.14;99448.40;105236;1270;61237;-75
2022/03/07 01:54:12;;;;;;;38.00;27.40;;;;;;;-1.89;76.05;99443.20;104975;1271;61317;-75
2022/03/07 01:56:38;;;;;;;38.40;26.40;;;;;;;-1.90;75.70;99440.23;105279;1270;75655;-75
2022/03/07 01:59:05;;;;;;;40.20;27.20;;;;;;;-1.91;75.92;99442.87;105246;1270;61195;-76
2022/03/07 02:01:31;;;;;;;37.00;28.50;;;;;;;-1.92;76.00;99441.82;105287;1270;61276;-75
2022/03/07 02:03:58;;;;;;;36.10;25.40;;;;;;;-1.92;75.68;99436.41;105266;1270;61282;-75
2022/03/07 02:06:25;;;;;;;34.60;27.00;;;;;;;-1.92;75.64;99435.38;105284;1270;61394;-74
2022/03/07 02:08:54;;;;;;;42.30;30.50;;;;;;;-1.93;75.66;99430.17;105248;1270;76486;-75
2022/03/07 02:11:20;;;;;;;46.60;33.80;;;;;;;-1.94;75.63;99435.05;105355;1270;69245;-75
2022/03/07 02:13:47;;;;;;;44.80;32.20;;;;;;;-1.94;75.75;99428.96;105339;1270;72581;-75
2022/03/07 02:16:14;;;;;;;38.80;28.50;;;;;;;-1.93;75.54;99430.51;105251;1270;61298;-74
2022/03/07 02:18:41;;;;;;;36.00;27.20;;;;;;;-1.94;75.28;99424.78;105280;1270;61234;-73
2022/03/07 02:21:10;;;;;;;38.30;28.90;;;;;;;-1.96;75.17;99425.14;105268;1270;76060;-75
2022/03/07 02:23:37;;;;;;;40.80;28.70;;;;;;;-1.96;75.20;99427.92;105438;1270;69511;-75
2022/03/07 02:26:14;;;;;;;39.20;28.30;;;;;;;-1.97;75.21;99427.23;105243;1270;74093;-75
2022/03/07 02:28:43;;;;;;;42.30;31.00;;;;;;;-1.98;74.95;99433.16;105197;1270;61369;-75
2022/03/07 02:31:11;;;;;;;40.10;31.10;;;;;;;-2.00;74.78;99430.58;105272;1270;61269;-74
2022/03/07 02:33:37;;;;;;;42.10;30.80;;;;;;;-2.01;74.88;99418.23;105390;1270;76391;-75
2022/03/07 02:36:05;;;;;;;38.80;29.80;;;;;;;-2.02;75.21;99413.35;105257;1270;70712;-74
2022/03/07 02:38:31;;;;;;;42.30;30.80;;;;;;;-2.02;75.11;99414.42;105078;1270;73902;-75
2022/03/07 02:40:58;;;;;;;42.20;29.70;;;;;;;-2.03;74.79;99413.89;105275;1270;61278;-75
2022/03/07 02:43:24;;;;;;;41.50;30.00;;;;;;;-2.04;74.67;99412.68;105301;1270;61938;-75
2022/03/07 02:45:51;;;;;;;42.30;31.80;;;;;;;-2.06;74.90;99412.88;105323;1270;60444;-75
2022/03/07 02:48:19;;;;;;;44.10;30.80;;;;;;;-2.07;74.87;99412.70;105338;1270;70235;-75
2022/03/07 02:50:45;;;;;;;42.00;29.90;;;;;;;-2.07;74.50;99417.94;105330;1270;73408;-75
2022/03/07 02:53:13;;;;;;;39.80;28.80;;;;;;;-2.10;74.56;99408.38;105413;1269;61336;-75
2022/03/07 02:55:40;;;;;;;40.30;31.40;;;;;;;-2.11;74.69;99407.69;105238;1270;61306;-75
2022/03/07 02:58:06;;;;;;;37.60;28.80;;;;;;;-2.12;74.56;99407.00;105239;1270;74175;-75
2022/03/07 03:00:33;;;;;;;39.50;29.80;;;;;;;-2.14;74.41;99413.81;105289;1270;61432;-75
2022/03/07 03:03:00;;;;;;;38.40;31.00;;;;;;;-2.15;74.46;99412.27;105251;1270;73294;-74
2022/03/07 03:05:27;;;;;;;44.70;32.30;;;;;;;-2.15;74.52;99409.13;105244;1270;61338;-74
2022/03/07 03:07:53;;;;;;;42.60;33.00;;;;;;;-2.17;74.59;99405.66;105237;1270;61289;-76
2022/03/07 03:10:20;;;;;;;45.70;34.10;;;;;;;-2.19;74.34;99407.42;105237;1269;61351;-74
2022/03/07 03:12:48;;;;;;;40.70;32.00;;;;;;;-2.20;74.30;99410.39;105474;1270;70336;-76
2022/03/07 03:15:15;;;;;;;41.70;31.90;;;;;;;-2.22;74.15;99409.52;105026;1270;72823;-76
2022/03/07 03:17:42;;;;;;;42.60;30.60;;;;;;;-2.23;74.15;99409.36;105234;1270;61374;-77
2022/03/07 03:20:11;;;;;;;39.60;30.00;;;;;;;-2.23;74.02;99411.46;105267;1270;61785;-74
2022/03/07 03:22:39;;;;;;;42.30;31.20;;;;;;;-2.24;73.80;99414.08;105463;1270;75144;-75
2022/03/07 03:25:06;;;;;;;41.40;31.50;;;;;;;-2.24;74.10;99410.25;105436;1268;69507;-75
2022/03/07 03:27:33;;;;;;;41.00;31.50;;;;;;;-2.27;73.83;99407.48;105308;1270;74159;-74
2022/03/07 03:29:59;;;;;;;40.80;29.40;;;;;;;-2.28;73.32;99403.67;105265;1270;61380;-76
2022/03/07 03:32:27;;;;;;;42.30;29.40;;;;;;;-2.29;73.30;99402.30;105284;1270;61271;-75
2022/03/07 03:34:55;;;;;;;35.90;27.70;;;;;;;-2.29;73.28;99400.73;105261;1270;75112;-75
2022/03/07 03:37:24;;;;;;;36.40;27.80;;;;;;;-2.30;72.95;99402.63;105295;1270;68872;-75
2022/03/07 03:39:51;;;;;;;39.30;28.30;;;;;;;-2.30;73.11;99401.44;105353;1270;73734;-75
2022/03/07 03:42:18;;;;;;;40.70;29.60;;;;;;;-2.32;72.99;99399.70;105358;1269;61243;-76
2022/03/07 03:44:44;;;;;;;36.80;28.50;;;;;;;-2.33;73.10;99395.36;105305;1269;61281;-73
2022/03/07 03:47:11;;;;;;;37.90;28.90;;;;;;;-2.34;73.21;99393.11;105046;1270;76411;-76
2022/03/07 03:49:37;;;;;;;38.10;28.20;;;;;;;-2.35;73.21;99388.77;105348;1270;68645;-76
2022/03/07 03:52:04;;;;;;;38.60;28.20;;;;;;;-2.37;73.45;99389.30;105326;1270;61256;-75
2022/03/07 03:54:31;;;;;;;41.90;29.10;;;;;;;-2.40;73.42;99384.11;105389;1269;61221;-75
2022/03/07 03:56:57;;;;;;;43.60;30.90;;;;;;;-2.43;73.57;99386.91;105488;1269;61210;-75
2022/03/07 03:59:24;;;;;;;49.00;33.20;;;;;;;-2.47;73.53;99385.55;105440;1270;61310;-74
2022/03/07 04:01:50;;;;;;;52.90;34.20;;;;;;;-2.50;73.54;99384.71;105611;1269;61275;-75
2022/03/07 04:04:17;;;;;;;50.10;33.90;;;;;;;-2.53;73.09;99389.42;105801;1270;61176;-76
2022/03/07 04:06:43;;;;;;;46.20;31.20;;;;;;;-2.56;72.49;99391.20;105921;1270;61311;-76
2022/03/07 04:09:21;;;;;;;38.20;27.40;;;;;;;-2.59;71.70;99394.18;105951;1270;61163;-76
2022/03/07 04:11:48;;;;;;;28.70;22.90;;;;;;;-2.62;70.32;99391.23;105885;1270;74241;-76
2022/03/07 04:14:16;;;;;;;28.90;23.60;;;;;;;-2.63;69.45;99395.23;108310;1269;69502;-74
2022/03/07 04:16:43;;;;;;;33.50;22.80;;;;;;;-2.61;68.72;99393.66;108612;1269;73266;-74
2022/03/07 04:19:11;;;;;;;30.10;22.40;;;;;;;-2.61;68.74;99393.48;108584;1268;59849;-75
2022/03/07 04:21:39;;;;;;;29.30;21.70;;;;;;;-2.59;67.63;99396.63;108636;1269;61106;-74
2022/03/07 04:24:07;;;;;;;33.10;23.00;;;;;;;-2.58;68.12;99398.00;108093;1269;74359;-75
2022/03/07 04:26:34;;;;;;;25.50;21.10;;;;;;;-2.56;67.42;99398.85;105367;1270;70325;-75
2022/03/07 04:29:05;;;;;;;33.90;24.10;;;;;;;-2.55;67.74;99395.36;105368;1269;73356;-74
2022/03/07 04:31:32;;;;;;;27.10;21.70;;;;;;;-2.55;67.86;99393.98;105339;1270;61301;-76
2022/03/07 04:33:59;;;;;;;33.70;23.30;;;;;;;-2.55;68.04;99391.55;104961;1270;61406;-74
2022/03/07 04:36:25;;;;;;;31.90;23.50;;;;;;;-2.54;67.63;99393.09;105297;1270;61584;-75
2022/03/07 04:38:52;;;;;;;32.20;23.20;;;;;;;-2.53;67.66;99396.90;105445;1270;68613;-76
2022/03/07 04:41:19;;;;;;;41.00;25.10;;;;;;;-2.53;67.05;99390.47;105267;1270;61243;-76
2022/03/07 04:43:45;;;;;;;38.00;25.30;;;;;;;-2.52;67.44;99387.16;105308;1270;61298;-74
2022/03/07 04:46:12;;;;;;;36.60;26.10;;;;;;;-2.52;67.42;99387.85;104954;1271;61252;-75
2022/03/07 04:48:38;;;;;;;35.20;26.00;;;;;;;-2.51;67.15;99386.29;105254;1270;75463;-75
2022/03/07 04:51:05;;;;;;;32.00;24.40;;;;;;;-2.51;67.60;99388.71;104536;1270;1003043;-75
2022/03/07 04:53:32;;;;;;;39.20;26.60;;;;;;;-2.52;67.82;99396.02;105228;1270;74382;-74
2022/03/07 04:55:59;;;;;;;34.30;25.10;;;;;;;-2.51;67.85;99398.64;105236;1270;61277;-74
2022/03/07 04:58:26;;;;;;;33.90;26.60;;;;;;;-2.52;67.65;99395.51;105245;1270;61935;-74
2022/03/07 05:00:54;;;;;;;37.40;26.30;;;;;;;-2.51;67.57;99394.79;105262;1270;75211;-74
2022/03/07 05:03:21;;;;;;;36.00;26.00;;;;;;;-2.50;67.87;99397.57;105280;1270;69032;-76
2022/03/07 05:05:48;;;;;;;40.50;27.40;;;;;;;-2.51;68.00;99399.84;105331;1270;72651;-77
2022/03/07 05:08:15;;;;;;;40.10;28.00;;;;;;;-2.51;67.66;99396.36;105278;1270;61185;-75
2022/03/07 05:10:42;;;;;;;33.80;25.80;;;;;;;-2.51;68.06;99399.33;105268;1270;61304;-75
2022/03/07 05:13:08;;;;;;;35.50;26.70;;;;;;;-2.50;67.50;99397.75;105292;1270;61311;-76
2022/03/07 05:15:35;;;;;;;36.20;26.80;;;;;;;-2.49;67.45;99404.38;105071;1270;68733;-76
2022/03/07 05:18:02;;;;;;;36.10;26.80;;;;;;;-2.49;67.73;99406.45;105292;1270;73842;-76
2022/03/07 05:20:29;;;;;;;38.30;26.70;;;;;;;-2.49;67.70;99408.71;105236;1270;61309;-76
2022/03/07 05:22:55;;;;;;;37.10;25.40;;;;;;;-2.48;67.57;99414.09;105297;1270;61561;-77
2022/03/07 05:25:22;;;;;;;40.00;27.30;;;;;;;-2.48;67.20;99410.79;105307;1270;75107;-75
2022/03/07 05:27:49;;;;;;;38.70;28.20;;;;;;;-2.47;67.52;99418.43;105126;1270;69200;-73
2022/03/07 05:30:19;;;;;;;41.20;28.60;;;;;;;-2.46;67.55;99417.73;105277;1270;74775;-75
2022/03/07 05:32:50;;;;;;;42.80;29.80;;;;;;;-2.45;67.75;99416.69;105296;1270;61296;-78
2022/03/07 05:35:18;;;;;;;44.10;29.60;;;;;;;-2.44;67.80;99415.29;105335;1270;61246;-76
2022/03/07 05:37:45;;;;;;;38.70;28.10;;;;;;;-2.43;67.94;99418.23;105071;1271;73695;-76
2022/03/07 05:40:13;;;;;;;42.20;29.60;;;;;;;-2.41;68.03;99418.58;104569;1270;1017109;-75
2022/03/07 05:42:40;;;;;;;40.50;29.40;;;;;;;-2.40;68.07;99423.77;105284;1270;71184;-77
2022/03/07 05:45:10;;;;;;;40.50;29.80;;;;;;;-2.38;68.07;99426.55;105741;1270;62205;-75
2022/03/07 05:47:38;;;;;;;40.10;30.90;;;;;;;-2.36;68.37;99427.05;106441;1270;61256;-77
2022/03/07 05:50:05;;;;;;;42.90;30.80;;;;;;;-2.33;68.44;99422.52;106111;1270;75233;-76
2022/03/07 05:52:32;;;;;;;41.90;29.80;;;;;;;-2.31;68.43;99422.83;105256;1270;70583;-77
2022/03/07 05:54:58;;;;;;;45.80;33.10;;;;;;;-2.28;68.47;99425.95;105275;1270;61364;-75
2022/03/07 05:57:25;;;;;;;46.60;31.60;;;;;;;-2.26;68.67;99425.06;105299;1270;61279;-75
2022/03/07 05:59:52;;;;;;;44.10;32.20;;;;;;;-2.24;68.84;99432.01;105311;1270;61752;-75
2022/03/07 06:02:19;;;;;;;43.10;30.80;;;;;;;-2.20;68.85;99431.46;105306;1270;73550;-74
2022/03/07 06:04:45;;;;;;;41.60;31.40;;;;;;;-2.16;68.75;99433.85;105242;1267;61242;-76
2022/03/07 06:07:11;;;;;;;41.30;31.00;;;;;;;-2.14;68.91;99428.44;104950;1270;61407;-77
2022/03/07 06:09:38;;;;;;;41.70;31.40;;;;;;;-2.10;69.06;99435.71;105360;1269;61391;-76
2022/03/07 06:12:06;;;;;;;44.50;33.30;;;;;;;-2.05;69.07;99437.59;105322;1270;61177;-77
2022/03/07 06:14:32;;;;;;;42.60;31.60;;;;;;;-2.02;69.01;99439.65;105326;1270;75316;-77
2022/03/07 06:16:59;;;;;;;43.00;31.30;;;;;;;-1.99;68.95;99441.20;105359;1270;69213;-77
2022/03/07 06:19:25;;;;;;;42.50;33.30;;;;;;;-1.96;69.10;99440.29;105310;1270;61262;-76
2022/03/07 06:21:51;;;;;;;45.80;32.50;;;;;;;-1.93;69.16;99441.84;105338;1269;61177;-76
2022/03/07 06:24:18;;;;;;;47.00;34.60;;;;;;;-1.88;69.13;99437.78;105284;1270;61349;-77
2022/03/07 06:26:45;;;;;;;42.60;30.90;;;;;;;-1.82;69.20;99441.03;105318;1270;61368;-76
2022/03/07 06:29:11;;;;;;;38.00;29.30;;;;;;;-1.74;69.28;99438.52;105775;1270;61404;-74
2022/03/07 06:31:38;;;;;;;48.80;36.80;;;;;;;-1.65;69.24;99437.36;105476;1270;61380;-75
2022/03/07 06:34:04;;;;;;;36.80;28.60;;;;;;;-1.55;69.29;99433.09;105374;1270;61323;-74
2022/03/07 06:36:31;;;;;;;37.30;28.00;;;;;;;-1.46;69.31;99433.52;105353;1270;61269;-74
2022/03/07 06:38:57;;;;;;;38.30;30.80;;;;;;;-1.43;69.11;99435.73;105420;1270;61377;-73
2022/03/07 06:41:23;;;;;;;41.40;29.70;;;;;;;-1.45;69.05;99439.42;105438;1270;61283;-77
2022/03/07 06:43:50;;;;;;;34.20;26.60;;;;;;;-1.47;69.27;99441.54;105433;1270;71661;-76
2022/03/07 06:46:17;;;;;;;38.00;27.60;;;;;;;-1.47;69.38;99440.33;105422;1269;61253;-78
2022/03/07 06:48:44;;;;;;;38.10;28.60;;;;;;;-1.47;69.54;99439.80;105475;1270;61226;-79
2022/03/07 06:51:10;;;;;;;35.50;28.60;;;;;;;-1.46;69.75;99436.48;105820;1270;61274;-78
2022/03/07 06:53:37;;;;;;;40.80;30.90;;;;;;;-1.41;69.80;99434.67;105842;1270;61206;-84
2022/03/07 06:56:03;;;;;;;42.50;32.60;;;;;;;-1.35;70.03;99436.34;105833;1269;61268;-84
2022/03/07 06:58:30;;;;;;;39.90;31.90;;;;;;;-1.31;70.03;99434.38;105799;1270;61176;-84
2022/03/07 07:00:56;;;;;;;50.40;36.20;;;;;;;-1.28;70.04;99439.40;105869;1269;61279;-82
2022/03/07 07:03:23;;;;;;;38.40;29.20;;;;;;;-1.28;70.06;99440.45;105843;1269;76423;-84
2022/03/07 07:05:50;;;;;;;40.70;32.30;;;;;;;-1.28;70.17;99438.89;105827;1270;69498;-82
2022/03/07 07:08:16;;;;;;;47.30;34.60;;;;;;;-1.27;70.34;99448.28;105949;1270;73324;-88
2022/03/07 07:10:43;;;;;;;41.40;33.20;;;;;;;-1.25;70.35;99449.65;106165;1270;61353;-86
2022/03/07 07:13:14;;;;;;;43.90;34.30;;;;;;;-1.23;70.59;99454.49;106020;1270;61136;-85
2022/03/07 07:15:41;;;;;;;36.50;28.40;;;;;;;-1.15;70.85;99449.52;105558;1269;74705;-77
2022/03/07 07:18:08;;;;;;;35.10;26.70;;;;;;;-1.11;70.97;99447.91;105404;1270;70557;-77
2022/03/07 07:20:34;;;;;;;39.10;28.20;;;;;;;-1.07;71.27;99457.11;105417;1270;61295;-77
2022/03/07 07:23:01;;;;;;;36.10;26.70;;;;;;;-1.06;71.47;99457.27;105615;1269;61166;-79
2022/03/07 07:25:27;;;;;;;34.20;25.70;;;;;;;-1.02;71.65;99457.04;105407;1267;61290;-79
2022/03/07 07:27:54;;;;;;;35.00;29.10;;;;;;;-0.97;71.41;99457.33;105463;1269;61167;-80
2022/03/07 07:30:22;;;;;;;35.00;27.70;;;;;;;-0.89;71.57;99459.84;105446;1269;61205;-80
2022/03/07 07:32:49;;;;;;;35.80;27.70;;;;;;;-0.82;71.64;99454.70;105873;1270;73673;-79
2022/03/07 07:35:16;;;;;;;34.80;27.90;;;;;;;-0.71;71.76;99456.63;105729;1270;61402;-79
2022/03/07 07:37:42;;;;;;;34.30;27.80;;;;;;;-0.57;71.68;99455.74;105629;1270;61177;-74
2022/03/07 07:40:09;;;;;;;34.90;27.80;;;;;;;-0.47;71.42;99453.14;105347;1269;61260;-73
2022/03/07 07:42:36;;;;;;;37.20;28.80;;;;;;;-0.33;71.58;99455.04;105050;1271;68410;-74
2022/03/07 07:45:03;;;;;;;39.80;31.80;;;;;;;-0.27;71.31;99457.73;105310;1270;73137;-73
2022/03/07 07:47:30;;;;;;;40.30;31.80;;;;;;;-0.21;71.25;99453.63;105320;1270;61248;-72
2022/03/07 07:49:56;;;;;;;34.40;28.20;;;;;;;-0.17;71.20;99459.14;105346;1270;61270;-73
2022/03/07 07:52:23;;;;;;;33.10;28.00;;;;;;;-0.14;70.89;99451.58;105339;1270;75417;-73
2022/03/07 07:54:50;;;;;;;34.50;27.10;;;;;;;-0.10;70.85;99447.51;105339;1270;68346;-72
2022/03/07 07:57:16;;;;;;;37.80;29.70;;;;;;;-0.11;70.82;99440.55;105262;1270;71325;-73
2022/03/07 07:59:43;;;;;;;35.00;28.90;;;;;;;-0.11;70.74;99444.02;105064;1270;61377;-72
2022/03/07 08:02:09;;;;;;;36.10;29.70;;;;;;;-0.13;70.91;99442.84;105331;1270;61400;-74
2022/03/07 08:04:36;;;;;;;36.60;29.40;;;;;;;-0.09;70.89;99444.34;105313;1270;61193;-74
2022/03/07 08:07:03;;;;;;;38.70;29.90;;;;;;;-0.07;70.66;99445.00;105305;1270;61254;-74
2022/03/07 08:09:29;;;;;;;37.40;29.20;;;;;;;-0.05;70.99;99443.95;105306;1269;74375;-74
2022/03/07 08:11:56;;;;;;;37.00;29.30;;;;;;;-0.01;71.15;99443.34;105328;1270;61368;-73
2022/03/07 08:14:23;;;;;;;31.10;25.90;;;;;;;-0.00;71.10;99443.33;105293;1270;61262;-75
2022/03/07 08:16:50;;;;;;;38.10;29.10;;;;;;;0.01;70.95;99450.82;105203;1271;74612;-75
2022/03/07 08:19:17;;;;;;;38.20;29.90;;;;;;;0.07;71.16;99450.73;105305;1270;61278;-72
2022/03/07 08:21:43;;;;;;;40.60;30.00;;;;;;;0.08;71.02;99447.38;105297;1270;73653;-74
2022/03/07 08:24:11;;;;;;;42.00;31.00;;;;;;;0.10;71.12;99445.07;105305;1270;61298;-73
2022/03/07 08:26:38;;;;;;;40.30;31.10;;;;;;;0.15;71.34;99443.23;105342;1269;61262;-75
2022/03/07 08:29:05;;;;;;;41.10;30.10;;;;;;;0.17;71.07;99441.63;105345;1269;74825;-74
2022/03/07 08:31:32;;;;;;;43.30;30.80;;;;;;;0.16;71.15;99440.61;105336;1268;61215;-73
2022/03/07 08:33:58;;;;;;;40.20;31.00;;;;;;;0.16;71.06;99437.10;105282;1268;61308;-74
2022/03/07 08:36:24;;;;;;;42.40;30.80;;;;;;;0.27;71.23;99433.42;105121;1270;61270;-73
2022/03/07 08:38:51;;;;;;;37.00;29.20;;;;;;;0.40;71.29;99430.91;105294;1270;61475;-73
2022/03/07 08:41:17;;;;;;;37.80;27.30;;;;;;;0.52;70.97;99431.91;105301;1269;61145;-72
2022/03/07 08:43:45;;;;;;;32.60;26.90;;;;;;;0.57;70.27;99434.60;105219;1270;61242;-74
2022/03/07 08:46:12;;;;;;;34.90;27.50;;;;;;;0.58;70.11;99432.13;105287;1270;73523;-74
2022/03/07 08:48:39;;;;;;;38.90;31.70;;;;;;;0.65;70.00;99434.62;105253;1270;61309;-74
2022/03/07 08:51:05;;;;;;;39.80;29.80;;;;;;;0.76;69.89;99435.63;105312;1270;61392;-75
2022/03/07 08:53:32;;;;;;;35.40;26.70;;;;;;;0.89;69.57;99432.39;105238;1270;75896;-73
2022/03/07 08:55:58;;;;;;;29.40;20.80;;;;;;;1.00;69.18;99430.05;105236;1269;70393;-73
2022/03/07 08:58:25;;;;;;;23.10;18.30;;;;;;;1.10;68.12;99427.05;105301;1270;61390;-73
2022/03/07 09:00:51;;;;;;;22.20;17.10;;;;;;;1.14;67.11;99425.04;105286;1269;61319;-73
2022/03/07 09:03:18;;;;;;;26.20;17.50;;;;;;;1.16;66.44;99416.41;105309;1270;60495;-74
2022/03/07 09:05:44;;;;;;;22.90;15.90;;;;;;;1.26;66.10;99412.53;105257;1269;61135;-74
2022/03/07 09:08:11;;;;;;;20.40;15.80;;;;;;;1.31;65.26;99410.48;105235;1270;61192;-73
2022/03/07 09:10:37;;;;;;;22.90;16.10;;;;;;;1.37;65.19;99407.89;105269;1270;61375;-72
2022/03/07 09:13:03;;;;;;;20.10;16.60;;;;;;;1.51;65.69;99402.83;105150;1270;61254;-75
2022/03/07 09:15:30;;;;;;;24.30;17.20;;;;;;;1.68;64.54;99403.84;105288;1269;61377;-73
2022/03/07 09:17:56;;;;;;;19.00;15.20;;;;;;;1.75;64.06;99406.45;105274;1270;61285;-73
2022/03/07 09:20:23;;;;;;;20.20;14.80;;;;;;;1.82;63.08;99406.14;105205;1270;61307;-74
2022/03/07 09:22:49;;;;;;;19.90;15.60;;;;;;;1.80;62.16;99410.36;104263;1270;1004679;-74
2022/03/07 09:25:16;;;;;;;20.70;16.30;;;;;;;1.79;62.82;99410.04;105222;1270;61289;-73
2022/03/07 09:27:44;;;;;;;22.70;17.00;;;;;;;1.90;62.80;99408.20;105251;1269;61228;-72
2022/03/07 09:30:12;;;;;;;22.90;16.60;;;;;;;1.98;62.72;99407.30;105302;1270;73311;-73
2022/03/07 09:32:38;;;;;;;22.00;17.40;;;;;;;2.10;62.41;99406.11;105337;1270;68978;-73
2022/03/07 09:35:06;;;;;;;21.90;16.60;;;;;;;2.21;62.80;99405.11;104969;1270;73191;-74
2022/03/07 09:37:33;;;;;;;23.90;17.40;;;;;;;2.37;62.24;99404.02;105481;1269;61321;-73
2022/03/07 09:40:00;;;;;;;28.00;19.80;;;;;;;2.50;62.59;99403.12;105261;1270;61974;-74
2022/03/07 09:42:27;;;;;;;20.80;16.40;;;;;;;2.65;61.99;99404.62;105252;1270;74343;-74
2022/03/07 09:44:54;;;;;;;22.00;15.80;;;;;;;2.74;60.91;99403.31;105245;1270;70449;-74
2022/03/07 09:47:22;;;;;;;22.30;16.20;;;;;;;2.74;59.96;99406.12;105305;1270;73347;-74
2022/03/07 09:49:52;;;;;;;22.40;17.90;;;;;;;2.74;60.39;99400.70;105497;1269;61301;-74
2022/03/07 09:52:19;;;;;;;19.50;12.90;;;;;;;2.81;60.10;99398.91;105270;1270;61182;-73
2022/03/07 09:54:45;;;;;;;13.90;11.90;;;;;;;2.85;59.44;99397.55;105307;1270;76341;-74
2022/03/07 09:57:12;;;;;;;17.00;12.00;;;;;;;2.86;58.95;99399.11;105333;1270;67567;-73
2022/03/07 09:59:38;;;;;;;20.10;13.30;;;;;;;2.89;58.85;99402.89;105291;1270;61698;-74
2022/03/07 10:02:09;;;;;;;12.90;9.20;;;;;;;2.98;58.63;99403.15;105285;1270;61288;-74
2022/03/07 10:04:41;;;;;;;9.10;8.10;;;;;;;3.04;57.55;99401.21;105212;1270;61413;-75
2022/03/07 10:07:07;;;;;;;9.60;8.50;;;;;;;3.06;57.78;99395.88;105446;1270;76124;-73
2022/03/07 10:09:34;;;;;;;19.60;12.60;;;;;;;3.03;57.25;99394.56;105402;1270;61246;-74
2022/03/07 10:12:02;;;;;;;18.40;14.40;;;;;;;3.01;57.58;99395.33;105336;1271;74024;-72
2022/03/07 10:14:32;;;;;;;14.10;12.10;;;;;;;2.98;57.04;99399.63;105822;1270;61328;-74
2022/03/07 10:16:59;;;;;;;10.70;9.30;;;;;;;3.01;56.63;99399.02;106288;1270;61144;-73
2022/03/07 10:19:26;;;;;;;13.80;8.70;;;;;;;3.04;56.78;99393.31;105982;1270;75202;-75
2022/03/07 10:21:53;;;;;;;15.50;9.50;;;;;;;3.16;56.15;99390.84;105049;1270;67518;-74
2022/03/07 10:24:35;;;;;;;10.10;8.10;;;;;;;3.20;55.12;99389.34;105309;1270;73323;-75
2022/03/07 10:27:01;;;;;;;9.70;8.10;;;;;;;3.25;54.70;99390.91;105310;1270;61412;-75
2022/03/07 10:29:28;;;;;;;10.60;7.60;;;;;;;3.17;52.40;99389.94;105226;1270;61349;-73
2022/03/07 10:31:55;;;;;;;10.10;8.20;;;;;;;3.02;52.16;99395.13;105130;1270;73571;-74
2022/03/07 10:34:21;;;;;;;9.60;7.70;;;;;;;2.92;52.59;99394.20;105313;1270;69287;-73
2022/03/07 10:36:48;;;;;;;11.00;8.90;;;;;;;2.89;52.99;99393.40;105282;1270;61438;-75
2022/03/07 10:39:23;;;;;;;9.20;7.90;;;;;;;2.96;52.88;99390.58;105247;1270;61257;-70
2022/03/07 10:41:51;;;;;;;9.20;6.70;;;;;;;2.99;52.49;99391.01;105549;1270;61122;-74
2022/03/07 10:44:30;;;;;;;11.00;8.00;;;;;;;2.99;51.56;99390.47;105285;1270;75226;-75
2022/03/07 10:47:12;;;;;;;8.20;6.20;;;;;;;3.03;52.27;99389.31;105393;1270;69638;-75
2022/03/07 10:49:52;;;;;;;6.90;6.20;;;;;;;3.27;51.71;99390.89;105342;1270;73439;-74
2022/03/07 10:52:21;;;;;;;6.10;5.10;;;;;;;3.38;50.27;99392.65;105299;1270;61342;-75
2022/03/07 10:54:49;;;;;;;8.10;5.50;;;;;;;3.28;50.77;99387.31;105418;1270;61241;-75
2022/03/07 10:57:18;;;;;;;9.10;6.10;;;;;;;3.32;51.16;99384.73;105463;1270;76328;-73
2022/03/07 10:59:45;;;;;;;7.50;5.10;;;;;;;3.39;49.67;99391.04;105188;1270;69803;-74
2022/03/07 11:02:16;;;;;;;7.80;5.50;;;;;;;3.36;50.13;99383.74;105296;1270;61171;-74
2022/03/07 11:04:45;;;;;;;7.80;5.50;;;;;;;3.41;50.17;99380.24;105657;1270;61166;-73
2022/03/07 11:07:12;;;;;;;7.80;5.90;;;;;;;3.43;49.49;99376.85;105539;1270;61382;-73
2022/03/07 11:09:40;;;;;;;7.90;6.30;;;;;;;3.47;49.95;99370.20;105056;1270;76452;-73
2022/03/07 11:12:12;;;;;;;9.30;6.80;;;;;;;3.50;49.17;99375.39;105311;1270;69190;-74